UAL2671 KLAS-KLAX
Flight info
| Callsign | UAL2671 |
|---|---|
| Flight time | 0h 36m |
| Altitude | 28000 |
| Route | RADYR2 BLAQQ SHTNR ANJLL4 |
| Aircraft | B738/M-SDE2E3FGHIRWXY/LB1 |
Departure
| Time | 2026-05-07 06:39 |
|---|---|
| Airport | Harry Reid International Airport (KLAS) |
Arrival
| Time | 2026-05-07 07:16 |
|---|---|
| Airport | Los Angeles International Airport (KLAX) |
| Time | Latitude | Longitude | Altitude | Speed | Heading |
|---|---|---|---|---|---|
| 2026-05-07 06:07 | 36.08320 | -115.14004 | 2091 ft | 0 kts | 133° |
| 2026-05-07 06:09 | 36.08320 | -115.14003 | 2091 ft | 5 kts | 133° |
| 2026-05-07 06:10 | 36.08320 | -115.14004 | 2091 ft | 0 kts | 133° |
| 2026-05-07 06:11 | 36.08320 | -115.14003 | 2091 ft | 0 kts | 133° |
| 2026-05-07 06:25 | 36.08328 | -115.14014 | 2090 ft | 4 kts | 137° |
| 2026-05-07 06:25 | 36.08350 | -115.14034 | 2088 ft | 4 kts | 154° |
| 2026-05-07 06:26 | 36.08374 | -115.14042 | 2087 ft | 4 kts | 191° |
| 2026-05-07 06:26 | 36.08389 | -115.14034 | 2086 ft | 1 kts | 224° |
| 2026-05-07 06:26 | 36.08391 | -115.14032 | 2086 ft | 0 kts | 224° |
| 2026-05-07 06:28 | 36.08376 | -115.14049 | 2086 ft | 6 kts | 224° |
| 2026-05-07 06:28 | 36.08338 | -115.14097 | 2087 ft | 13 kts | 224° |
| 2026-05-07 06:28 | 36.08243 | -115.14155 | 2088 ft | 16 kts | 181° |
| 2026-05-07 06:28 | 36.08135 | -115.14156 | 2090 ft | 15 kts | 179° |
| 2026-05-07 06:29 | 36.08032 | -115.14155 | 2092 ft | 15 kts | 180° |
| 2026-05-07 06:29 | 36.07931 | -115.14155 | 2094 ft | 14 kts | 180° |
| 2026-05-07 06:29 | 36.07841 | -115.14137 | 2093 ft | 13 kts | 133° |
| 2026-05-07 06:29 | 36.07827 | -115.13994 | 2093 ft | 24 kts | 91° |
| 2026-05-07 06:30 | 36.07827 | -115.13796 | 2091 ft | 23 kts | 90° |
| 2026-05-07 06:30 | 36.07827 | -115.13606 | 2085 ft | 22 kts | 90° |
| 2026-05-07 06:30 | 36.07827 | -115.13419 | 2082 ft | 22 kts | 90° |
| 2026-05-07 06:30 | 36.07826 | -115.13207 | 2071 ft | 28 kts | 89° |
| 2026-05-07 06:31 | 36.07827 | -115.12960 | 2062 ft | 28 kts | 90° |
| 2026-05-07 06:31 | 36.07827 | -115.12726 | 2051 ft | 27 kts | 90° |
| 2026-05-07 06:31 | 36.07827 | -115.12504 | 2048 ft | 20 kts | 90° |
| 2026-05-07 06:31 | 36.07827 | -115.12362 | 2043 ft | 15 kts | 90° |
| 2026-05-07 06:32 | 36.07825 | -115.12275 | 2046 ft | 8 kts | 101° |
| 2026-05-07 06:32 | 36.07823 | -115.12266 | 2040 ft | 0 kts | 110° |
| 2026-05-07 06:33 | 36.07820 | -115.12259 | 2040 ft | 3 kts | 115° |
| 2026-05-07 06:33 | 36.07797 | -115.12219 | 2039 ft | 8 kts | 127° |
| 2026-05-07 06:33 | 36.07786 | -115.12202 | 2039 ft | 0 kts | 130° |
| 2026-05-07 06:36 | 36.07785 | -115.12201 | 2039 ft | 1 kts | 130° |
| 2026-05-07 06:36 | 36.07767 | -115.12174 | 2039 ft | 7 kts | 129° |
| 2026-05-07 06:36 | 36.07745 | -115.12143 | 2039 ft | 5 kts | 137° |
| 2026-05-07 06:37 | 36.07719 | -115.12122 | 2041 ft | 5 kts | 156° |
| 2026-05-07 06:37 | 36.07684 | -115.12116 | 2047 ft | 9 kts | 178° |
| 2026-05-07 06:37 | 36.07638 | -115.12155 | 2044 ft | 6 kts | 272° |
| 2026-05-07 06:37 | 36.07639 | -115.12173 | 2046 ft | 0 kts | 268° |
| 2026-05-07 06:38 | 36.07639 | -115.12175 | 2042 ft | 3 kts | 268° |
| 2026-05-07 06:38 | 36.07640 | -115.12408 | 2047 ft | 61 kts | 270° |
| 2026-05-07 06:39 | 36.07638 | -115.13229 | 2073 ft | 125 kts | 270° |
| 2026-05-07 06:39 | 36.07634 | -115.14517 | 2201 ft | 166 kts | 268° |
| 2026-05-07 06:39 | 36.07640 | -115.15976 | 2777 ft | 174 kts | 269° |
| 2026-05-07 06:39 | 36.07647 | -115.17504 | 3444 ft | 186 kts | 270° |
| 2026-05-07 06:40 | 36.07649 | -115.19228 | 3746 ft | 212 kts | 270° |
| 2026-05-07 06:40 | 36.07627 | -115.21145 | 3946 ft | 234 kts | 265° |
| 2026-05-07 06:40 | 36.07342 | -115.23169 | 4304 ft | 247 kts | 258° |
| 2026-05-07 06:40 | 36.06739 | -115.25182 | 4903 ft | 255 kts | 234° |
| 2026-05-07 06:41 | 36.05362 | -115.26641 | 5362 ft | 273 kts | 204° |
| 2026-05-07 06:41 | 36.03562 | -115.27483 | 6033 ft | 280 kts | 200° |
| 2026-05-07 06:41 | 36.01706 | -115.28301 | 6777 ft | 284 kts | 199° |
| 2026-05-07 06:41 | 35.99838 | -115.29134 | 7508 ft | 287 kts | 200° |
| 2026-05-07 06:42 | 35.97923 | -115.29850 | 8108 ft | 292 kts | 192° |
| 2026-05-07 06:42 | 35.95922 | -115.30354 | 8926 ft | 294 kts | 191° |
| 2026-05-07 06:42 | 35.93887 | -115.30819 | 9649 ft | 300 kts | 190° |
| 2026-05-07 06:42 | 35.91819 | -115.31288 | 10331 ft | 306 kts | 190° |
| 2026-05-07 06:43 | 35.89648 | -115.31791 | 10548 ft | 330 kts | 190° |
| 2026-05-07 06:43 | 35.87334 | -115.32339 | 11007 ft | 345 kts | 190° |
| 2026-05-07 06:43 | 35.84946 | -115.32911 | 11686 ft | 352 kts | 191° |
| 2026-05-07 06:43 | 35.82510 | -115.33501 | 12251 ft | 364 kts | 191° |
| 2026-05-07 06:44 | 35.79990 | -115.34117 | 12542 ft | 382 kts | 191° |
| 2026-05-07 06:44 | 35.77354 | -115.34763 | 13201 ft | 388 kts | 191° |
| 2026-05-07 06:44 | 35.74693 | -115.35415 | 13938 ft | 392 kts | 191° |
| 2026-05-07 06:44 | 35.72003 | -115.36073 | 14596 ft | 395 kts | 191° |
| 2026-05-07 06:45 | 35.69288 | -115.36738 | 15260 ft | 399 kts | 190° |
| 2026-05-07 06:45 | 35.66546 | -115.37408 | 15924 ft | 403 kts | 190° |
| 2026-05-07 06:45 | 35.63767 | -115.38087 | 16565 ft | 408 kts | 190° |
| 2026-05-07 06:45 | 35.60999 | -115.38734 | 17199 ft | 411 kts | 186° |
| 2026-05-07 06:46 | 35.58131 | -115.38816 | 17812 ft | 413 kts | 174° |
| 2026-05-07 06:46 | 35.55250 | -115.38514 | 18441 ft | 416 kts | 172° |
| 2026-05-07 06:46 | 35.52344 | -115.38210 | 18980 ft | 420 kts | 173° |
| 2026-05-07 06:46 | 35.49454 | -115.37967 | 19511 ft | 424 kts | 174° |
| 2026-05-07 06:47 | 35.46488 | -115.37758 | 20065 ft | 427 kts | 176° |
| 2026-05-07 06:47 | 35.43507 | -115.38110 | 20568 ft | 436 kts | 194° |
| 2026-05-07 06:47 | 35.40705 | -115.39579 | 21152 ft | 439 kts | 207° |
| 2026-05-07 06:47 | 35.37999 | -115.41347 | 21676 ft | 443 kts | 208° |
| 2026-05-07 06:48 | 35.35302 | -115.43140 | 22123 ft | 448 kts | 208° |
| 2026-05-07 06:48 | 35.32543 | -115.44962 | 22615 ft | 451 kts | 207° |
| 2026-05-07 06:48 | 35.29756 | -115.46778 | 23125 ft | 454 kts | 207° |
| 2026-05-07 06:48 | 35.26936 | -115.48594 | 23612 ft | 457 kts | 207° |
| 2026-05-07 06:49 | 35.24107 | -115.50403 | 24020 ft | 460 kts | 207° |
| 2026-05-07 06:49 | 35.21249 | -115.52225 | 24441 ft | 463 kts | 207° |
| 2026-05-07 06:49 | 35.18427 | -115.54023 | 24852 ft | 465 kts | 207° |
| 2026-05-07 06:49 | 35.15545 | -115.55859 | 25244 ft | 467 kts | 207° |
| 2026-05-07 06:50 | 35.12676 | -115.57764 | 25588 ft | 472 kts | 212° |
| 2026-05-07 06:50 | 35.10083 | -115.60256 | 25831 ft | 475 kts | 223° |
| 2026-05-07 06:50 | 35.07738 | -115.63133 | 26228 ft | 477 kts | 227° |
| 2026-05-07 06:50 | 35.05551 | -115.66118 | 26655 ft | 477 kts | 229° |
| 2026-05-07 06:51 | 35.03353 | -115.69169 | 27046 ft | 479 kts | 229° |
| 2026-05-07 06:51 | 35.01118 | -115.72209 | 27374 ft | 482 kts | 228° |
| 2026-05-07 06:51 | 34.98829 | -115.75246 | 27597 ft | 486 kts | 227° |
| 2026-05-07 06:51 | 34.96532 | -115.78213 | 28032 ft | 486 kts | 227° |
| 2026-05-07 06:52 | 34.94178 | -115.81206 | 28426 ft | 487 kts | 226° |
| 2026-05-07 06:52 | 34.91827 | -115.84175 | 28833 ft | 488 kts | 226° |
| 2026-05-07 06:52 | 34.89463 | -115.87160 | 29046 ft | 492 kts | 226° |
| 2026-05-07 06:52 | 34.87066 | -115.90190 | 29032 ft | 498 kts | 226° |
| 2026-05-07 06:53 | 34.82233 | -115.96312 | 29027 ft | 507 kts | 227° |
| 2026-05-07 06:53 | 34.77355 | -116.02482 | 29026 ft | 506 kts | 227° |
| 2026-05-07 06:54 | 34.72488 | -116.08667 | 29026 ft | 506 kts | 227° |
| 2026-05-07 06:54 | 34.67624 | -116.14867 | 29021 ft | 506 kts | 227° |
| 2026-05-07 06:55 | 34.62758 | -116.21055 | 29027 ft | 506 kts | 227° |
| 2026-05-07 06:55 | 34.57902 | -116.27213 | 29026 ft | 506 kts | 227° |
| 2026-05-07 06:56 | 34.53047 | -116.33360 | 29024 ft | 506 kts | 227° |
| 2026-05-07 06:56 | 34.50603 | -116.36449 | 28864 ft | 508 kts | 227° |
| 2026-05-07 06:56 | 34.48138 | -116.39565 | 27957 ft | 511 kts | 227° |
| 2026-05-07 06:57 | 34.45673 | -116.42677 | 27084 ft | 509 kts | 227° |
| 2026-05-07 06:57 | 34.44050 | -116.44723 | 26457 ft | 510 kts | 227° |
| 2026-05-07 06:57 | 34.40950 | -116.49072 | 25147 ft | 509 kts | 241° |
| 2026-05-07 06:57 | 34.39449 | -116.52825 | 24876 ft | 492 kts | 248° |
| 2026-05-07 06:58 | 34.38033 | -116.56532 | 24639 ft | 477 kts | 246° |
| 2026-05-07 06:58 | 34.37064 | -116.58954 | 24504 ft | 468 kts | 246° |
| 2026-05-07 06:58 | 34.35648 | -116.62399 | 24315 ft | 455 kts | 245° |
| 2026-05-07 06:58 | 34.34243 | -116.65783 | 24139 ft | 443 kts | 245° |
| 2026-05-07 06:59 | 34.32875 | -116.69087 | 23836 ft | 435 kts | 246° |
| 2026-05-07 06:59 | 34.31541 | -116.72380 | 23326 ft | 434 kts | 246° |
| 2026-05-07 06:59 | 34.30226 | -116.75665 | 22812 ft | 431 kts | 246° |
| 2026-05-07 06:59 | 34.28925 | -116.78915 | 22322 ft | 428 kts | 246° |
| 2026-05-07 07:00 | 34.27647 | -116.82105 | 21851 ft | 430 kts | 246° |
| 2026-05-07 07:00 | 34.26318 | -116.85414 | 21395 ft | 446 kts | 246° |
| 2026-05-07 07:00 | 34.24945 | -116.88823 | 20894 ft | 451 kts | 246° |
| 2026-05-07 07:00 | 34.23569 | -116.92227 | 20386 ft | 448 kts | 245° |
| 2026-05-07 07:01 | 34.22203 | -116.95599 | 19906 ft | 444 kts | 245° |
| 2026-05-07 07:01 | 34.20879 | -116.98922 | 19420 ft | 440 kts | 248° |
| 2026-05-07 07:01 | 34.19824 | -117.02374 | 18964 ft | 435 kts | 254° |
| 2026-05-07 07:01 | 34.18957 | -117.05869 | 18461 ft | 432 kts | 256° |
| 2026-05-07 07:02 | 34.18104 | -117.09341 | 17954 ft | 429 kts | 255° |
| 2026-05-07 07:02 | 34.17206 | -117.12782 | 17370 ft | 428 kts | 253° |
| 2026-05-07 07:02 | 34.16295 | -117.16144 | 16895 ft | 425 kts | 253° |
| 2026-05-07 07:02 | 34.15366 | -117.19512 | 16447 ft | 421 kts | 252° |
| 2026-05-07 07:03 | 34.14439 | -117.22861 | 15988 ft | 418 kts | 252° |
| 2026-05-07 07:03 | 34.13523 | -117.26176 | 15537 ft | 415 kts | 252° |
| 2026-05-07 07:03 | 34.12615 | -117.29468 | 15086 ft | 412 kts | 252° |
| 2026-05-07 07:03 | 34.11708 | -117.32754 | 14633 ft | 410 kts | 252° |
| 2026-05-07 07:04 | 34.10815 | -117.35987 | 14194 ft | 409 kts | 252° |
| 2026-05-07 07:04 | 34.09941 | -117.39249 | 13647 ft | 408 kts | 253° |
| 2026-05-07 07:04 | 34.09123 | -117.42545 | 13109 ft | 406 kts | 254° |
| 2026-05-07 07:04 | 34.08320 | -117.45816 | 12597 ft | 404 kts | 254° |
| 2026-05-07 07:05 | 34.07517 | -117.49052 | 12091 ft | 399 kts | 253° |
| 2026-05-07 07:05 | 34.06634 | -117.52147 | 11736 ft | 391 kts | 248° |
| 2026-05-07 07:05 | 34.05551 | -117.55127 | 11429 ft | 382 kts | 245° |
| 2026-05-07 07:05 | 34.04444 | -117.58009 | 11116 ft | 375 kts | 245° |
| 2026-05-07 07:06 | 34.03374 | -117.60851 | 10806 ft | 367 kts | 246° |
| 2026-05-07 07:06 | 34.02350 | -117.63648 | 10510 ft | 361 kts | 246° |
| 2026-05-07 07:06 | 34.01371 | -117.66357 | 10240 ft | 355 kts | 247° |
| 2026-05-07 07:06 | 34.00515 | -117.69137 | 9915 ft | 349 kts | 260° |
| 2026-05-07 07:07 | 34.00247 | -117.71964 | 9953 ft | 332 kts | 266° |
| 2026-05-07 07:07 | 34.00028 | -117.74687 | 9922 ft | 319 kts | 266° |
| 2026-05-07 07:07 | 33.99802 | -117.77282 | 9880 ft | 306 kts | 265° |
| 2026-05-07 07:07 | 33.99562 | -117.79815 | 9294 ft | 309 kts | 265° |
| 2026-05-07 07:08 | 33.99309 | -117.82432 | 8489 ft | 317 kts | 264° |
| 2026-05-07 07:08 | 33.99050 | -117.85086 | 7880 ft | 317 kts | 264° |
| 2026-05-07 07:08 | 33.98799 | -117.87658 | 7471 ft | 309 kts | 264° |
| 2026-05-07 07:08 | 33.98552 | -117.90191 | 7151 ft | 299 kts | 264° |
| 2026-05-07 07:09 | 33.98311 | -117.92639 | 6846 ft | 289 kts | 264° |
| 2026-05-07 07:09 | 33.98079 | -117.94989 | 6558 ft | 280 kts | 264° |
| 2026-05-07 07:09 | 33.97852 | -117.97290 | 6255 ft | 272 kts | 264° |
| 2026-05-07 07:09 | 33.97630 | -117.99539 | 5977 ft | 268 kts | 264° |
| 2026-05-07 07:10 | 33.97410 | -118.01767 | 5707 ft | 267 kts | 264° |
| 2026-05-07 07:10 | 33.97189 | -118.03989 | 5434 ft | 266 kts | 264° |
| 2026-05-07 07:10 | 33.96970 | -118.06197 | 5164 ft | 265 kts | 264° |
| 2026-05-07 07:10 | 33.96752 | -118.08385 | 4838 ft | 266 kts | 265° |
| 2026-05-07 07:11 | 33.96533 | -118.10597 | 4480 ft | 265 kts | 264° |
| 2026-05-07 07:11 | 33.96317 | -118.12762 | 4134 ft | 260 kts | 264° |
| 2026-05-07 07:11 | 33.96102 | -118.14903 | 3796 ft | 254 kts | 264° |
| 2026-05-07 07:11 | 33.95894 | -118.16983 | 3499 ft | 245 kts | 263° |
| 2026-05-07 07:12 | 33.95693 | -118.18979 | 3204 ft | 233 kts | 263° |
| 2026-05-07 07:12 | 33.95521 | -118.20865 | 2929 ft | 220 kts | 264° |
| 2026-05-07 07:12 | 33.95358 | -118.22635 | 2640 ft | 209 kts | 263° |
| 2026-05-07 07:12 | 33.95183 | -118.24347 | 2358 ft | 195 kts | 263° |
| 2026-05-07 07:13 | 33.95022 | -118.25883 | 2128 ft | 179 kts | 263° |
| 2026-05-07 07:13 | 33.94873 | -118.27315 | 1909 ft | 168 kts | 263° |
| 2026-05-07 07:13 | 33.94732 | -118.28672 | 1692 ft | 160 kts | 263° |
| 2026-05-07 07:13 | 33.94596 | -118.29979 | 1466 ft | 155 kts | 262° |
| 2026-05-07 07:14 | 33.94464 | -118.31250 | 1272 ft | 156 kts | 262° |
| 2026-05-07 07:14 | 33.94334 | -118.32541 | 1048 ft | 156 kts | 262° |
| 2026-05-07 07:14 | 33.94199 | -118.33822 | 817 ft | 151 kts | 262° |
| 2026-05-07 07:14 | 33.94069 | -118.35068 | 637 ft | 148 kts | 262° |
| 2026-05-07 07:15 | 33.93945 | -118.36274 | 450 ft | 147 kts | 263° |
| 2026-05-07 07:15 | 33.93817 | -118.37501 | 279 ft | 146 kts | 263° |
| 2026-05-07 07:15 | 33.93694 | -118.38704 | 98 ft | 141 kts | 262° |
| 2026-05-07 07:15 | 33.93584 | -118.39759 | 93 ft | 106 kts | 262° |
| 2026-05-07 07:16 | 33.93514 | -118.40451 | 95 ft | 52 kts | 263° |
| 2026-05-07 07:16 | 33.93480 | -118.40810 | 93 ft | 35 kts | 268° |
| 2026-05-07 07:16 | 33.93496 | -118.41046 | 95 ft | 25 kts | 284° |
| 2026-05-07 07:16 | 33.93553 | -118.41209 | 94 ft | 16 kts | 304° |
| 2026-05-07 07:17 | 33.93635 | -118.41266 | 95 ft | 14 kts | 352° |
| 2026-05-07 07:17 | 33.93728 | -118.41274 | 94 ft | 13 kts | 18° |
| 2026-05-07 07:17 | 33.93757 | -118.41177 | 93 ft | 13 kts | 83° |
| 2026-05-07 07:17 | 33.93768 | -118.41073 | 94 ft | 13 kts | 83° |
| 2026-05-07 07:18 | 33.93779 | -118.40970 | 92 ft | 12 kts | 83° |
| 2026-05-07 07:18 | 33.93791 | -118.40855 | 93 ft | 19 kts | 82° |
| 2026-05-07 07:18 | 33.93810 | -118.40669 | 95 ft | 23 kts | 83° |
| 2026-05-07 07:18 | 33.93830 | -118.40482 | 95 ft | 22 kts | 83° |
| 2026-05-07 07:19 | 33.93847 | -118.40302 | 95 ft | 22 kts | 83° |
| 2026-05-07 07:19 | 33.93865 | -118.40125 | 96 ft | 21 kts | 83° |
| 2026-05-07 07:19 | 33.93884 | -118.39953 | 97 ft | 20 kts | 83° |
| 2026-05-07 07:19 | 33.93897 | -118.39830 | 97 ft | 11 kts | 66° |
| 2026-05-07 07:20 | 33.93962 | -118.39807 | 94 ft | 9 kts | 351° |
| 2026-05-07 07:20 | 33.94026 | -118.39823 | 94 ft | 10 kts | 353° |
| 2026-05-07 07:20 | 33.94099 | -118.39827 | 92 ft | 11 kts | 353° |
| 2026-05-07 07:20 | 33.94171 | -118.39837 | 92 ft | 10 kts | 353° |
| 2026-05-07 07:21 | 33.94202 | -118.39813 | 94 ft | 4 kts | 88° |
| 2026-05-07 07:21 | 33.94203 | -118.39794 | 92 ft | 2 kts | 83° |
| 2026-05-07 07:21 | 33.94204 | -118.39783 | 92 ft | 1 kts | 83° |
| 2026-05-07 07:21 | 33.94205 | -118.39780 | 92 ft | 0 kts | 83° |
| 2026-05-07 07:22 | 33.94205 | -118.39779 | 92 ft | 0 kts | 83° |